Time;durP1;ratioP1;P1;durP2;ratioP2;P2;SDS_P1;SDS_P2;PMS_P1;PMS_P2;Temp;Humidity;BMP_temperature;BMP_pressure;BME280_temperature;BME280_humidity;BME280_pressure;Samples;Min_cycle;Max_cycle;Signal;HPM_P1;HPM_P2
2023/07/04 00:01:46;;;;;;;6.05;1.48;;;;;;;;;;5100229;27;20070;-67
2023/07/04 00:04:13;;;;;;;5.97;2.15;;;;;;;;;;5102359;28;20051;-66
2023/07/04 00:06:39;;;;;;;9.38;1.83;;;;;;;;;;5105759;28;20043;-67
2023/07/04 00:09:07;;;;;;;8.57;1.63;;;;;;;;;;5110422;28;20079;-66
2023/07/04 00:11:33;;;;;;;5.13;1.92;;;;;;;;;;5106101;27;20044;-66
2023/07/04 00:13:59;;;;;;;5.40;1.60;;;;;;;;;;5108200;28;20044;-67
2023/07/04 00:16:25;;;;;;;6.75;1.33;;;;;;;;;;5093746;28;20502;-67
2023/07/04 00:18:52;;;;;;;7.25;1.38;;;;;;;;;;5109609;27;20512;-67
2023/07/04 00:21:18;;;;;;;8.57;1.80;;;;;;;;;;5102870;28;20040;-67
2023/07/04 00:23:46;;;;;;;8.07;1.60;;;;;;;;;;5109609;28;20582;-67
2023/07/04 00:26:14;;;;;;;5.00;1.52;;;;;;;;;;5105197;28;20129;-67
2023/07/04 00:28:42;;;;;;;9.25;1.88;;;;;;;;;;5109287;27;20043;-67
2023/07/04 00:31:10;;;;;;;9.32;1.90;;;;;;;;;;5108631;27;20445;-66
2023/07/04 00:33:36;;;;;;;8.70;2.10;;;;;;;;;;5108741;27;20100;-66
2023/07/04 00:36:07;;;;;;;6.95;2.08;;;;;;;;;;5109679;27;20031;-66
2023/07/04 00:38:34;;;;;;;9.63;1.73;;;;;;;;;;5099465;27;20375;-67
2023/07/04 00:41:06;;;;;;;9.55;2.28;;;;;;;;;;5094642;28;20047;-66
2023/07/04 00:43:56;;;;;;;9.77;1.75;;;;;;;;;;5108824;28;20036;-67
2023/07/04 00:46:28;;;;;;;11.43;1.90;;;;;;;;;;5122444;27;20047;-67
2023/07/04 00:48:56;;;;;;;14.65;2.40;;;;;;;;;;5107472;28;20564;-67
2023/07/04 00:51:23;;;;;;;8.70;1.98;;;;;;;;;;5104893;28;20044;-67
2023/07/04 00:53:54;;;;;;;11.45;2.05;;;;;;;;;;5106693;28;20054;-67
2023/07/04 00:56:25;;;;;;;6.63;1.83;;;;;;;;;;5100352;28;20125;-67
2023/07/04 00:58:54;;;;;;;8.63;1.90;;;;;;;;;;5110946;28;20059;-67
2023/07/04 01:01:20;;;;;;;10.32;2.97;;;;;;;;;;5107414;28;20048;-66
2023/07/04 01:03:47;;;;;;;7.03;2.03;;;;;;;;;;5111661;28;20039;-67
2023/07/04 01:06:25;;;;;;;10.43;2.15;;;;;;;;;;5109053;28;20074;-67
2023/07/04 01:08:56;;;;;;;7.38;2.25;;;;;;;;;;5109757;28;20048;-66
2023/07/04 01:11:29;;;;;;;8.00;1.67;;;;;;;;;;5108499;28;20548;-67
2023/07/04 01:13:55;;;;;;;8.50;1.95;;;;;;;;;;5106956;28;20487;-67
2023/07/04 01:16:23;;;;;;;4.85;1.52;;;;;;;;;;5107970;28;20541;-67
2023/07/04 01:18:52;;;;;;;6.80;1.73;;;;;;;;;;5102290;28;20125;-67
2023/07/04 01:21:19;;;;;;;14.80;1.80;;;;;;;;;;5099932;28;20048;-67
2023/07/04 01:24:04;;;;;;;6.75;2.25;;;;;;;;;;5109352;28;20411;-67
2023/07/04 01:26:36;;;;;;;9.80;3.22;;;;;;;;;;5106749;28;20079;-67
2023/07/04 01:29:05;;;;;;;6.45;1.90;;;;;;;;;;5108973;28;20043;-67
2023/07/04 01:31:31;;;;;;;6.00;1.45;;;;;;;;;;5105763;28;20112;-67
2023/07/04 01:33:58;;;;;;;4.40;1.60;;;;;;;;;;5100631;28;20039;-67
2023/07/04 01:36:27;;;;;;;7.25;2.10;;;;;;;;;;5101433;28;20093;-67
2023/07/04 01:38:54;;;;;;;7.13;2.28;;;;;;;;;;5103038;27;20092;-67
2023/07/04 01:41:24;;;;;;;7.85;1.83;;;;;;;;;;5102758;27;20399;-67
2023/07/04 01:43:56;;;;;;;5.47;2.00;;;;;;;;;;5107236;28;20139;-67
2023/07/04 01:46:24;;;;;;;9.13;2.15;;;;;;;;;;5108515;27;20440;-67
2023/07/04 01:48:50;;;;;;;9.00;2.13;;;;;;;;;;5108643;27;20051;-67
2023/07/04 01:51:22;;;;;;;8.63;2.70;;;;;;;;;;5103404;27;20054;-67
2023/07/04 01:53:48;;;;;;;14.77;2.15;;;;;;;;;;5105009;28;20062;-67
2023/07/04 01:56:15;;;;;;;7.00;2.38;;;;;;;;;;5105201;27;20047;-67
2023/07/04 01:58:41;;;;;;;9.25;2.35;;;;;;;;;;5105941;28;20165;-67
2023/07/04 02:01:07;;;;;;;7.03;1.83;;;;;;;;;;5104585;28;20039;-67
2023/07/04 02:03:34;;;;;;;5.93;2.13;;;;;;;;;;5107050;27;20490;-67
2023/07/04 02:06:01;;;;;;;14.32;2.50;;;;;;;;;;5106234;28;20047;-67
2023/07/04 02:08:27;;;;;;;9.07;2.50;;;;;;;;;;5106311;27;20056;-67
2023/07/04 02:10:53;;;;;;;6.30;2.53;;;;;;;;;;5094885;28;20138;-67
2023/07/04 02:13:19;;;;;;;9.13;2.25;;;;;;;;;;5106563;27;20119;-67
2023/07/04 02:15:46;;;;;;;8.32;1.98;;;;;;;;;;5107696;28;20056;-67
2023/07/04 02:18:12;;;;;;;5.63;1.92;;;;;;;;;;5103943;28;20047;-67
2023/07/04 02:20:38;;;;;;;11.48;2.38;;;;;;;;;;5103776;28;20548;-66
2023/07/04 02:23:05;;;;;;;8.00;2.05;;;;;;;;;;5103564;28;20039;-67
2023/07/04 02:25:31;;;;;;;6.38;1.55;;;;;;;;;;5104164;27;20042;-67
2023/07/04 02:27:57;;;;;;;6.55;1.95;;;;;;;;;;5092489;27;20055;-67
2023/07/04 02:30:23;;;;;;;9.38;2.17;;;;;;;;;;5100761;28;20134;-67
2023/07/04 02:32:49;;;;;;;7.07;2.10;;;;;;;;;;5107200;28;20126;-67
2023/07/04 02:35:15;;;;;;;5.22;1.95;;;;;;;;;;5131820;27;20047;-67
2023/07/04 02:37:42;;;;;;;9.30;2.53;;;;;;;;;;5107692;28;20071;-67
2023/07/04 02:40:08;;;;;;;6.10;2.13;;;;;;;;;;5102035;28;20034;-67
2023/07/04 02:42:34;;;;;;;7.40;2.08;;;;;;;;;;5104521;27;20112;-67
2023/07/04 02:45:00;;;;;;;6.00;1.38;;;;;;;;;;5102134;28;20040;-67
2023/07/04 02:47:26;;;;;;;6.75;1.77;;;;;;;;;;5104416;28;20060;-67
2023/07/04 02:49:53;;;;;;;9.95;2.10;;;;;;;;;;5103665;27;20058;-67
2023/07/04 02:52:24;;;;;;;6.75;2.30;;;;;;;;;;5105036;28;20318;-67
2023/07/04 02:54:51;;;;;;;5.95;2.20;;;;;;;;;;5100478;27;20092;-67
2023/07/04 02:57:18;;;;;;;8.65;2.08;;;;;;;;;;5101874;28;20085;-67
2023/07/04 02:59:44;;;;;;;7.75;1.75;;;;;;;;;;5103047;27;20183;-67
2023/07/04 03:02:10;;;;;;;10.07;2.08;;;;;;;;;;5104170;28;20036;-67
2023/07/04 03:04:36;;;;;;;7.15;2.10;;;;;;;;;;5102822;28;20403;-66
2023/07/04 03:07:03;;;;;;;8.20;3.30;;;;;;;;;;5101420;28;20047;-67
2023/07/04 03:09:30;;;;;;;7.72;1.85;;;;;;;;;;5105333;28;20418;-67
2023/07/04 03:11:56;;;;;;;7.25;2.00;;;;;;;;;;5094240;27;20131;-67
2023/07/04 03:14:22;;;;;;;4.72;1.50;;;;;;;;;;5101756;28;20090;-67
2023/07/04 03:16:48;;;;;;;7.72;1.52;;;;;;;;;;5106392;27;20554;-67
2023/07/04 03:19:14;;;;;;;7.60;1.50;;;;;;;;;;5100911;27;20518;-67
2023/07/04 03:21:41;;;;;;;5.63;1.33;;;;;;;;;;5102855;27;20062;-67
2023/07/04 03:24:07;;;;;;;7.38;1.38;;;;;;;;;;5103003;28;20491;-67
2023/07/04 03:26:36;;;;;;;6.25;1.65;;;;;;;;;;5091135;27;20491;-67
2023/07/04 03:29:03;;;;;;;4.80;1.40;;;;;;;;;;5084112;28;20046;-67
2023/07/04 03:31:29;;;;;;;3.65;1.20;;;;;;;;;;5103598;28;20482;-67
2023/07/04 03:33:55;;;;;;;4.47;1.17;;;;;;;;;;5090832;27;20040;-67
2023/07/04 03:36:22;;;;;;;3.38;1.17;;;;;;;;;;5103572;28;20130;-67
2023/07/04 03:38:48;;;;;;;2.75;1.02;;;;;;;;;;5103601;28;20044;-67
2023/07/04 03:41:14;;;;;;;3.60;1.10;;;;;;;;;;5102263;28;20442;-67
2023/07/04 03:43:40;;;;;;;2.72;0.93;;;;;;;;;;5102738;27;20142;-67
2023/07/04 03:46:06;;;;;;;4.63;1.05;;;;;;;;;;5102385;27;20116;-67
2023/07/04 03:48:33;;;;;;;2.63;1.20;;;;;;;;;;5102195;27;20047;-67
2023/07/04 03:50:59;;;;;;;3.50;1.08;;;;;;;;;;5106162;28;20434;-67
2023/07/04 03:53:25;;;;;;;2.60;0.85;;;;;;;;;;5099441;28;20043;-67
2023/07/04 03:55:51;;;;;;;4.55;0.82;;;;;;;;;;5106693;28;20121;-67
2023/07/04 03:58:18;;;;;;;2.25;0.70;;;;;;;;;;5103940;27;20049;-67
2023/07/04 04:00:48;;;;;;;3.72;0.90;;;;;;;;;;5103121;28;20411;-67
2023/07/04 04:03:14;;;;;;;2.05;0.77;;;;;;;;;;5118103;27;20039;-67
2023/07/04 04:05:42;;;;;;;3.42;0.95;;;;;;;;;;5104755;28;20514;-67
2023/07/04 04:08:08;;;;;;;2.95;0.90;;;;;;;;;;5099965;27;20467;-67
2023/07/04 04:10:34;;;;;;;2.97;1.05;;;;;;;;;;5102401;28;20055;-67
2023/07/04 04:13:01;;;;;;;4.70;1.10;;;;;;;;;;5103431;28;20137;-67
2023/07/04 04:15:46;;;;;;;4.57;0.90;;;;;;;;;;5102903;28;20092;-67
2023/07/04 04:18:12;;;;;;;2.20;0.80;;;;;;;;;;5102814;28;20105;-67
2023/07/04 04:20:38;;;;;;;3.75;0.98;;;;;;;;;;5101321;27;20466;-67
2023/07/04 04:23:05;;;;;;;5.63;1.98;;;;;;;;;;5101484;27;20040;-65
2023/07/04 04:25:38;;;;;;;2.67;0.90;;;;;;;;;;5103004;28;20541;-65
2023/07/04 04:28:08;;;;;;;6.53;1.35;;;;;;;;;;5073119;27;20646;-67
2023/07/04 04:30:34;;;;;;;4.65;1.08;;;;;;;;;;5100016;28;20051;-67
2023/07/04 04:33:02;;;;;;;4.93;1.10;;;;;;;;;;5119138;27;20090;-67
2023/07/04 04:35:29;;;;;;;13.75;3.92;;;;;;;;;;5106296;28;20152;-63
2023/07/04 04:37:55;;;;;;;2.13;0.90;;;;;;;;;;5105464;28;20487;-63
2023/07/04 04:40:21;;;;;;;6.93;1.30;;;;;;;;;;5106490;28;20032;-63
2023/07/04 04:42:53;;;;;;;5.45;1.23;;;;;;;;;;5105414;28;20431;-63
2023/07/04 04:45:20;;;;;;;4.47;1.13;;;;;;;;;;5104602;28;20042;-63
2023/07/04 04:47:52;;;;;;;5.47;1.10;;;;;;;;;;5103328;28;20252;-63
2023/07/04 04:50:26;;;;;;;3.38;1.20;;;;;;;;;;5105393;27;20111;-63
2023/07/04 04:52:52;;;;;;;6.80;1.30;;;;;;;;;;5098431;28;20098;-67
2023/07/04 04:55:19;;;;;;;8.18;1.40;;;;;;;;;;5107849;28;20047;-66
2023/07/04 04:57:46;;;;;;;3.90;1.40;;;;;;;;;;5111424;28;20067;-67
2023/07/04 05:00:12;;;;;;;4.05;1.13;;;;;;;;;;5111863;28;20040;-67
2023/07/04 05:02:39;;;;;;;2.88;1.30;;;;;;;;;;5111973;28;20039;-67
2023/07/04 05:05:05;;;;;;;7.20;1.58;;;;;;;;;;5109011;28;20056;-67
2023/07/04 05:07:31;;;;;;;7.03;1.48;;;;;;;;;;5111329;28;20074;-67
2023/07/04 05:09:58;;;;;;;7.63;1.95;;;;;;;;;;5107856;28;20047;-67
2023/07/04 05:12:25;;;;;;;3.78;1.50;;;;;;;;;;5109632;28;20050;-67
2023/07/04 05:14:51;;;;;;;7.80;1.55;;;;;;;;;;5114309;28;20048;-67
2023/07/04 05:17:17;;;;;;;10.48;1.70;;;;;;;;;;5115511;27;20382;-67
2023/07/04 05:19:44;;;;;;;5.78;1.70;;;;;;;;;;5106746;27;20396;-67
2023/07/04 05:22:10;;;;;;;7.88;1.70;;;;;;;;;;5119076;27;20164;-67
2023/07/04 05:24:36;;;;;;;7.93;2.33;;;;;;;;;;5109425;28;20036;-67
2023/07/04 05:27:02;;;;;;;6.15;1.80;;;;;;;;;;5114689;28;20043;-65
2023/07/04 05:29:28;;;;;;;6.93;1.67;;;;;;;;;;5115927;27;20040;-64
2023/07/04 05:31:55;;;;;;;9.38;1.73;;;;;;;;;;5114791;27;20051;-68
2023/07/04 05:34:21;;;;;;;5.90;1.55;;;;;;;;;;5094649;28;20126;-67
2023/07/04 05:36:47;;;;;;;18.77;2.15;;;;;;;;;;5106950;27;20046;-66
2023/07/04 05:39:13;;;;;;;10.13;1.60;;;;;;;;;;5115131;27;20406;-68
2023/07/04 05:41:39;;;;;;;8.43;1.50;;;;;;;;;;5114343;27;20095;-67
2023/07/04 05:44:07;;;;;;;11.38;1.58;;;;;;;;;;5114082;28;20040;-68
2023/07/04 05:46:33;;;;;;;9.43;1.75;;;;;;;;;;5107965;28;20125;-68
2023/07/04 05:49:00;;;;;;;8.52;1.52;;;;;;;;;;5113574;28;20043;-68
2023/07/04 05:51:26;;;;;;;12.02;2.58;;;;;;;;;;5115427;28;20549;-68
2023/07/04 05:53:53;;;;;;;6.68;1.40;;;;;;;;;;5112618;27;20060;-68
2023/07/04 05:56:24;;;;;;;11.80;2.20;;;;;;;;;;5119508;27;20126;-68
2023/07/04 05:58:52;;;;;;;19.30;1.92;;;;;;;;;;5112363;28;20044;-68
2023/07/04 06:01:25;;;;;;;18.17;1.92;;;;;;;;;;5110080;28;20071;-67
2023/07/04 06:03:51;;;;;;;;;;;;;;;;;;5110245;28;20123;-68
2023/07/04 06:06:19;;;;;;;6.18;1.45;;;;;;;;;;5136586;27;19927;-68
2023/07/04 06:08:47;;;;;;;7.70;1.50;;;;;;;;;;5103905;28;20059;-68
2023/07/04 06:11:13;;;;;;;7.32;1.70;;;;;;;;;;5108475;28;20072;-68
2023/07/04 06:13:40;;;;;;;6.18;1.30;;;;;;;;;;5106372;28;20139;-68
2023/07/04 06:16:09;;;;;;;6.97;1.38;;;;;;;;;;5104410;28;20081;-69
2023/07/04 06:18:36;;;;;;;7.40;1.30;;;;;;;;;;5107465;28;20046;-68
2023/07/04 06:21:06;;;;;;;12.13;2.13;;;;;;;;;;5144145;27;20125;-68
2023/07/04 06:23:32;;;;;;;9.43;2.95;;;;;;;;;;5110400;28;20048;-68
2023/07/04 06:25:58;;;;;;;8.05;1.63;;;;;;;;;;5104681;28;20039;-68
2023/07/04 06:28:25;;;;;;;8.27;1.63;;;;;;;;;;5120689;27;20074;-68
2023/07/04 06:30:51;;;;;;;4.38;1.27;;;;;;;;;;5109700;28;20544;-68
2023/07/04 06:33:17;;;;;;;10.45;1.70;;;;;;;;;;5109106;28;20043;-68
2023/07/04 06:35:43;;;;;;;5.15;1.13;;;;;;;;;;5111799;28;20050;-68
2023/07/04 06:38:10;;;;;;;6.63;1.50;;;;;;;;;;5111945;28;20086;-68
2023/07/04 06:40:36;;;;;;;6.07;1.20;;;;;;;;;;5111794;27;20099;-68
2023/07/04 06:43:04;;;;;;;8.35;1.40;;;;;;;;;;5113041;28;20051;-68
2023/07/04 06:45:35;;;;;;;8.65;1.80;;;;;;;;;;5112224;28;20483;-68
2023/07/04 06:48:01;;;;;;;6.15;1.20;;;;;;;;;;5110185;28;20055;-68
2023/07/04 06:50:28;;;;;;;6.00;1.30;;;;;;;;;;5134713;27;20035;-68
2023/07/04 06:52:54;;;;;;;10.40;1.40;;;;;;;;;;5111083;28;20059;-71
2023/07/04 06:55:21;;;;;;;7.00;1.45;;;;;;;;;;5112066;27;20036;-71
2023/07/04 06:57:47;;;;;;;7.78;1.33;;;;;;;;;;5111841;28;20075;-71
2023/07/04 07:00:14;;;;;;;3.22;1.00;;;;;;;;;;5113069;28;20052;-71
2023/07/04 07:02:40;;;;;;;6.03;1.15;;;;;;;;;;5112574;28;20054;-71
2023/07/04 07:05:06;;;;;;;8.80;2.15;;;;;;;;;;5111824;28;20051;-72
2023/07/04 07:07:33;;;;;;;4.15;1.10;;;;;;;;;;5112056;27;20050;-73
2023/07/04 07:09:59;;;;;;;7.65;1.27;;;;;;;;;;5114080;28;20162;-73
2023/07/04 07:12:25;;;;;;;8.48;1.42;;;;;;;;;;5113041;28;20451;-73
2023/07/04 07:14:52;;;;;;;6.22;1.08;;;;;;;;;;5112260;27;20093;-72
2023/07/04 07:17:18;;;;;;;10.38;1.77;;;;;;;;;;5117504;27;20050;-73
2023/07/04 07:19:44;;;;;;;7.05;1.60;;;;;;;;;;5111080;28;20047;-73
2023/07/04 07:22:10;;;;;;;6.53;1.67;;;;;;;;;;5112457;28;20043;-72
2023/07/04 07:24:37;;;;;;;4.60;1.20;;;;;;;;;;5095810;28;20539;-72
2023/07/04 07:27:03;;;;;;;5.95;1.30;;;;;;;;;;5111106;28;20148;-73
2023/07/04 07:29:29;;;;;;;9.43;1.48;;;;;;;;;;5112451;28;20057;-73
2023/07/04 07:31:55;;;;;;;5.93;1.70;;;;;;;;;;5112597;27;20047;-73
2023/07/04 07:34:22;;;;;;;6.90;1.23;;;;;;;;;;5111320;28;20477;-72
2023/07/04 07:36:48;;;;;;;9.10;1.40;;;;;;;;;;5111210;28;20127;-72
2023/07/04 07:39:16;;;;;;;7.50;1.40;;;;;;;;;;5112580;28;20047;-72
2023/07/04 07:41:43;;;;;;;8.32;1.83;;;;;;;;;;5111515;28;20047;-72
2023/07/04 07:44:10;;;;;;;9.38;1.70;;;;;;;;;;5110303;27;20043;-72
2023/07/04 07:46:36;;;;;;;5.85;1.50;;;;;;;;;;5103195;28;20047;-74
2023/07/04 07:49:03;;;;;;;4.90;1.20;;;;;;;;;;5111569;28;20406;-72
2023/07/04 07:51:29;;;;;;;4.40;1.17;;;;;;;;;;5113004;28;20384;-71
2023/07/04 07:53:56;;;;;;;7.70;1.35;;;;;;;;;;5109561;28;20101;-71
2023/07/04 07:56:24;;;;;;;7.68;1.50;;;;;;;;;;5106527;28;20078;-71
2023/07/04 07:58:50;;;;;;;10.77;1.40;;;;;;;;;;5109611;28;20130;-71
2023/07/04 08:01:20;;;;;;;9.80;1.85;;;;;;;;;;5105611;28;20118;-71
2023/07/04 08:03:46;;;;;;;9.57;1.52;;;;;;;;;;5107522;28;20127;-71
2023/07/04 08:06:25;;;;;;;7.22;1.98;;;;;;;;;;5109160;28;20478;-71
2023/07/04 08:08:52;;;;;;;9.27;1.85;;;;;;;;;;5112109;28;20040;-72
2023/07/04 08:11:18;;;;;;;7.95;2.50;;;;;;;;;;5107983;28;20407;-71
2023/07/04 08:13:45;;;;;;;11.88;2.60;;;;;;;;;;5107600;28;20039;-71
2023/07/04 08:16:11;;;;;;;8.65;1.88;;;;;;;;;;5110351;28;20130;-75
2023/07/04 08:18:37;;;;;;;7.00;2.10;;;;;;;;;;5108669;28;20046;-74
2023/07/04 08:21:04;;;;;;;11.60;2.10;;;;;;;;;;5110931;28;20043;-72
2023/07/04 08:23:31;;;;;;;10.20;1.60;;;;;;;;;;5112175;28;20042;-73
2023/07/04 08:25:57;;;;;;;11.13;2.00;;;;;;;;;;5110600;28;20036;-74
2023/07/04 08:28:23;;;;;;;9.05;2.55;;;;;;;;;;5094643;28;20131;-73
2023/07/04 08:30:50;;;;;;;17.23;2.88;;;;;;;;;;5108525;28;20118;-72
2023/07/04 08:33:17;;;;;;;12.75;2.75;;;;;;;;;;5112214;28;20043;-72
2023/07/04 08:36:00;;;;;;;12.20;2.40;;;;;;;;;;5110571;28;20036;-75
2023/07/04 08:38:26;;;;;;;13.88;3.15;;;;;;;;;;5108386;27;20052;-71
2023/07/04 08:40:53;;;;;;;13.15;2.42;;;;;;;;;;5111349;28;20035;-71
2023/07/04 08:43:22;;;;;;;9.77;2.00;;;;;;;;;;5109296;28;20554;-71
2023/07/04 08:45:48;;;;;;;10.45;2.40;;;;;;;;;;5112194;28;20048;-71
2023/07/04 08:48:17;;;;;;;10.73;2.53;;;;;;;;;;5111421;27;20071;-71
2023/07/04 08:50:46;;;;;;;14.48;2.67;;;;;;;;;;5109511;28;20043;-71
2023/07/04 08:53:18;;;;;;;12.15;2.10;;;;;;;;;;5112112;28;20040;-71
2023/07/04 08:55:48;;;;;;;15.40;2.40;;;;;;;;;;5110987;28;20491;-71
2023/07/04 08:58:16;;;;;;;8.30;1.98;;;;;;;;;;5096256;28;20119;-71
2023/07/04 09:00:44;;;;;;;10.65;1.95;;;;;;;;;;5111270;28;20582;-71
2023/07/04 09:03:10;;;;;;;10.95;2.25;;;;;;;;;;5109124;28;20048;-71
2023/07/04 09:05:42;;;;;;;10.45;2.63;;;;;;;;;;5109839;28;20454;-74
2023/07/04 09:08:15;;;;;;;11.20;2.10;;;;;;;;;;5111143;28;20059;-73
2023/07/04 09:10:52;;;;;;;9.57;1.88;;;;;;;;;;5111010;28;20057;-73
2023/07/04 09:13:27;;;;;;;12.38;2.20;;;;;;;;;;5111057;28;20048;-73
2023/07/04 09:15:55;;;;;;;9.88;1.80;;;;;;;;;;5110477;28;20515;-73
2023/07/04 09:18:27;;;;;;;8.65;1.42;;;;;;;;;;5108023;28;20118;-73
2023/07/04 09:21:00;;;;;;;6.75;1.35;;;;;;;;;;5103149;28;20046;-73
2023/07/04 09:23:26;;;;;;;13.07;1.60;;;;;;;;;;5101579;28;20462;-73
2023/07/04 09:25:53;;;;;;;6.07;2.20;;;;;;;;;;5140231;27;20047;-73
2023/07/04 09:28:19;;;;;;;9.68;1.65;;;;;;;;;;5109548;28;20052;-73
2023/07/04 09:30:46;;;;;;;9.20;1.50;;;;;;;;;;5108665;28;20043;-73
2023/07/04 09:33:14;;;;;;;10.45;1.63;;;;;;;;;;5107880;28;20043;-73
2023/07/04 09:35:42;;;;;;;7.95;1.85;;;;;;;;;;5109632;28;20568;-73
2023/07/04 09:38:08;;;;;;;10.75;2.30;;;;;;;;;;5110080;28;20067;-73
2023/07/04 09:40:41;;;;;;;7.22;1.52;;;;;;;;;;5104564;28;20028;-73
2023/07/04 09:43:08;;;;;;;10.02;1.98;;;;;;;;;;5097183;28;20080;-73
2023/07/04 09:45:34;;;;;;;9.90;1.73;;;;;;;;;;5111762;28;20461;-73
2023/07/04 09:48:01;;;;;;;11.07;2.10;;;;;;;;;;5108601;28;20139;-73
2023/07/04 09:50:29;;;;;;;9.73;2.30;;;;;;;;;;5107616;28;20089;-73
2023/07/04 09:53:12;;;;;;;11.63;1.83;;;;;;;;;;5107318;28;20151;-73
2023/07/04 09:55:39;;;;;;;8.25;1.83;;;;;;;;;;5088665;28;20169;-73
2023/07/04 09:58:15;;;;;;;10.43;1.85;;;;;;;;;;5093359;28;20100;-73
2023/07/04 10:00:43;;;;;;;10.00;2.15;;;;;;;;;;5101149;28;20108;-73
2023/07/04 10:03:10;;;;;;;8.93;1.90;;;;;;;;;;5111729;27;20048;-73
2023/07/04 10:05:37;;;;;;;8.73;1.40;;;;;;;;;;5113107;28;20479;-73
2023/07/04 10:08:11;;;;;;;8.75;1.92;;;;;;;;;;5112821;27;20100;-73
2023/07/04 10:10:39;;;;;;;8.95;2.10;;;;;;;;;;5108318;27;20039;-73
2023/07/04 10:13:07;;;;;;;9.70;1.83;;;;;;;;;;5102081;27;20040;-73
2023/07/04 10:15:37;;;;;;;8.65;2.22;;;;;;;;;;5110597;28;20495;-73
2023/07/04 10:18:04;;;;;;;7.88;1.58;;;;;;;;;;5111669;27;20111;-73
2023/07/04 10:20:37;;;;;;;9.02;1.92;;;;;;;;;;5114041;28;20056;-73
2023/07/04 10:23:03;;;;;;;;;;;;;;;;;;5113603;28;20406;-73
2023/07/04 10:25:30;;;;;;;10.13;1.63;;;;;;;;;;5109964;28;20380;-73
2023/07/04 10:28:08;;;;;;;9.38;1.60;;;;;;;;;;5112669;28;20075;-73
2023/07/04 10:30:36;;;;;;;8.07;1.63;;;;;;;;;;5107502;28;20044;-73
2023/07/04 10:33:04;;;;;;;8.55;1.63;;;;;;;;;;5113356;28;20506;-73
2023/07/04 10:35:35;;;;;;;8.07;1.33;;;;;;;;;;5111499;28;20043;-73
2023/07/04 10:38:04;;;;;;;6.63;1.67;;;;;;;;;;5113208;27;20115;-73
2023/07/04 10:40:34;;;;;;;6.07;1.50;;;;;;;;;;5112275;28;20509;-73
2023/07/04 10:43:01;;;;;;;6.68;1.50;;;;;;;;;;5111078;28;20100;-73
2023/07/04 10:45:28;;;;;;;7.75;1.70;;;;;;;;;;5112178;28;20175;-71
2023/07/04 10:47:59;;;;;;;6.60;1.75;;;;;;;;;;5114697;27;20082;-73
2023/07/04 10:50:36;;;;;;;10.20;2.28;;;;;;;;;;5109138;28;20540;-73
2023/07/04 10:53:03;;;;;;;10.13;1.95;;;;;;;;;;5113104;27;20043;-72
2023/07/04 10:55:29;;;;;;;9.00;1.40;;;;;;;;;;5111372;27;20082;-73
2023/07/04 10:58:13;;;;;;;14.10;2.13;;;;;;;;;;5112124;28;20487;-73
2023/07/04 11:00:45;;;;;;;10.45;2.30;;;;;;;;;;5113321;28;20040;-73
2023/07/04 11:03:16;;;;;;;6.07;1.65;;;;;;;;;;5114761;27;20040;-73
2023/07/04 11:05:45;;;;;;;8.15;1.58;;;;;;;;;;5110508;28;20513;-72
2023/07/04 11:08:15;;;;;;;9.23;2.08;;;;;;;;;;5111623;28;20522;-73
2023/07/04 11:10:42;;;;;;;6.35;1.20;;;;;;;;;;5110073;28;20066;-73
2023/07/04 11:13:09;;;;;;;6.43;1.27;;;;;;;;;;5112088;27;20042;-68
2023/07/04 11:15:38;;;;;;;7.68;1.70;;;;;;;;;;5092076;28;20495;-73
2023/07/04 11:18:05;;;;;;;8.77;1.60;;;;;;;;;;5112482;28;20039;-73
2023/07/04 11:20:40;;;;;;;9.45;1.70;;;;;;;;;;5111064;28;20036;-73
2023/07/04 11:23:20;;;;;;;7.85;1.55;;;;;;;;;;5113081;28;20043;-73
2023/07/04 11:25:46;;;;;;;7.38;1.35;;;;;;;;;;5111917;28;20134;-73
2023/07/04 11:28:41;;;;;;;6.90;1.25;;;;;;;;;;5113776;28;20040;-69
2023/07/04 11:31:09;;;;;;;10.38;1.92;;;;;;;;;;5112511;27;20048;-69
2023/07/04 11:33:50;;;;;;;5.28;1.42;;;;;;;;;;5111904;28;20051;-69
2023/07/04 11:36:22;;;;;;;8.13;2.33;;;;;;;;;;5113839;28;20157;-69
2023/07/04 11:38:53;;;;;;;10.65;1.90;;;;;;;;;;5110028;27;20047;-69
2023/07/04 11:41:26;;;;;;;8.40;1.90;;;;;;;;;;5111420;27;20036;-69
2023/07/04 11:43:52;;;;;;;10.27;1.83;;;;;;;;;;5111685;28;20180;-69
2023/07/04 11:46:26;;;;;;;4.90;1.50;;;;;;;;;;5109206;28;20055;-69
2023/07/04 11:48:54;;;;;;;8.52;1.88;;;;;;;;;;5106059;28;20055;-69
2023/07/04 11:51:22;;;;;;;9.05;2.63;;;;;;;;;;5111879;27;20379;-69
2023/07/04 11:53:53;;;;;;;6.05;1.27;;;;;;;;;;5110343;28;20142;-69
2023/07/04 11:56:23;;;;;;;14.60;1.95;;;;;;;;;;5112195;28;20071;-69
2023/07/04 11:59:09;;;;;;;4.97;1.50;;;;;;;;;;5110799;28;20048;-69
2023/07/04 12:02:03;;;;;;;6.45;1.50;;;;;;;;;;5098901;27;20050;-69
2023/07/04 12:04:38;;;;;;;8.75;1.85;;;;;;;;;;5118031;27;20047;-69
2023/07/04 12:07:10;;;;;;;6.18;1.52;;;;;;;;;;5110918;28;20051;-69
2023/07/04 12:09:42;;;;;;;5.45;1.60;;;;;;;;;;5111527;28;20229;-69
2023/07/04 12:12:09;;;;;;;8.53;1.60;;;;;;;;;;5111702;27;20044;-69
2023/07/04 12:14:38;;;;;;;11.63;1.83;;;;;;;;;;5110750;28;20139;-69
2023/07/04 12:17:05;;;;;;;9.25;1.77;;;;;;;;;;5111131;28;20043;-69
2023/07/04 12:19:32;;;;;;;4.90;1.40;;;;;;;;;;5109350;28;20086;-69
2023/07/04 12:21:59;;;;;;;6.35;1.60;;;;;;;;;;5111005;27;20165;-70
2023/07/04 12:24:25;;;;;;;9.98;1.67;;;;;;;;;;5110178;28;20403;-69
2023/07/04 12:26:55;;;;;;;7.00;1.50;;;;;;;;;;5111660;27;20035;-69
2023/07/04 12:29:21;;;;;;;6.15;1.38;;;;;;;;;;5109341;28;20059;-69
2023/07/04 12:31:59;;;;;;;9.50;1.80;;;;;;;;;;5110649;28;20402;-69
2023/07/04 12:34:28;;;;;;;5.35;1.60;;;;;;;;;;5111026;27;20039;-69
2023/07/04 12:36:54;;;;;;;7.53;1.67;;;;;;;;;;5108032;28;20105;-69
2023/07/04 12:39:21;;;;;;;7.30;1.80;;;;;;;;;;5110178;28;20062;-69
2023/07/04 12:41:47;;;;;;;8.68;1.50;;;;;;;;;;5112381;28;20044;-69
2023/07/04 12:44:14;;;;;;;7.20;1.80;;;;;;;;;;5110025;28;20437;-69
2023/07/04 12:46:42;;;;;;;7.70;1.60;;;;;;;;;;5107533;28;20116;-69
2023/07/04 12:49:09;;;;;;;6.93;1.42;;;;;;;;;;5107677;28;20051;-69
2023/07/04 12:51:37;;;;;;;9.07;1.83;;;;;;;;;;5104743;28;20050;-68
2023/07/04 12:54:05;;;;;;;5.38;1.30;;;;;;;;;;5107140;28;20387;-68
2023/07/04 12:56:32;;;;;;;7.75;1.55;;;;;;;;;;5107856;28;20047;-69
2023/07/04 12:58:59;;;;;;;6.53;1.80;;;;;;;;;;5106739;28;20051;-69
2023/07/04 13:01:25;;;;;;;6.70;2.00;;;;;;;;;;5113255;28;20079;-69
2023/07/04 13:04:08;;;;;;;8.52;1.95;;;;;;;;;;5106135;28;20048;-69
2023/07/04 13:06:34;;;;;;;;;;;;;;;;;;5103229;28;20047;-69
2023/07/04 13:09:00;;;;;;;7.43;1.80;;;;;;;;;;5111791;28;19923;-70
2023/07/04 13:11:27;;;;;;;6.72;1.80;;;;;;;;;;5108999;28;20047;-70
2023/07/04 13:14:05;;;;;;;8.35;1.63;;;;;;;;;;5102290;28;20052;-69
2023/07/04 13:16:32;;;;;;;7.45;1.80;;;;;;;;;;5145069;27;20432;-68
2023/07/04 13:19:13;;;;;;;7.53;1.58;;;;;;;;;;5110389;28;20069;-69
2023/07/04 13:21:41;;;;;;;5.78;1.40;;;;;;;;;;5110947;28;20069;-69
2023/07/04 13:24:11;;;;;;;8.48;1.80;;;;;;;;;;5110701;28;20185;-69
2023/07/04 13:26:38;;;;;;;8.13;2.08;;;;;;;;;;5112000;28;20044;-69
2023/07/04 13:29:18;;;;;;;6.57;1.67;;;;;;;;;;5111128;28;20043;-69
2023/07/04 13:31:45;;;;;;;9.30;2.03;;;;;;;;;;5110095;28;20055;-69
2023/07/04 13:34:23;;;;;;;9.82;1.85;;;;;;;;;;5109593;28;20566;-69
2023/07/04 13:37:12;;;;;;;8.90;1.95;;;;;;;;;;5113897;28;20044;-70
2023/07/04 13:39:39;;;;;;;7.45;2.20;;;;;;;;;;5106708;27;20127;-69
2023/07/04 13:42:05;;;;;;;10.32;2.63;;;;;;;;;;5115610;28;20039;-69
2023/07/04 13:44:31;;;;;;;6.85;1.83;;;;;;;;;;5114391;28;20160;-69
2023/07/04 13:46:57;;;;;;;8.50;2.00;;;;;;;;;;5112596;28;20413;-70
2023/07/04 13:49:24;;;;;;;8.88;2.15;;;;;;;;;;5114963;28;20043;-69
2023/07/04 13:51:50;;;;;;;7.80;2.00;;;;;;;;;;5115552;27;20043;-69
2023/07/04 13:54:16;;;;;;;7.68;1.83;;;;;;;;;;5113639;28;20090;-70
2023/07/04 13:56:43;;;;;;;6.90;1.98;;;;;;;;;;5112748;27;20092;-70
2023/07/04 13:59:09;;;;;;;8.10;2.00;;;;;;;;;;5114240;27;20036;-69
2023/07/04 14:01:35;;;;;;;7.32;1.92;;;;;;;;;;5093547;28;20050;-69
2023/07/04 14:04:01;;;;;;;8.77;2.03;;;;;;;;;;5110708;28;20134;-69
2023/07/04 14:06:29;;;;;;;7.72;2.50;;;;;;;;;;5114499;28;20055;-69
2023/07/04 14:08:57;;;;;;;8.68;1.85;;;;;;;;;;5113116;28;20126;-69
2023/07/04 14:11:23;;;;;;;9.48;2.13;;;;;;;;;;5110864;27;20136;-66
2023/07/04 14:13:51;;;;;;;6.95;1.85;;;;;;;;;;5112641;27;20122;-66
2023/07/04 14:16:19;;;;;;;6.38;1.90;;;;;;;;;;5113126;27;20047;-66
2023/07/04 14:18:45;;;;;;;9.20;1.58;;;;;;;;;;5114222;27;20169;-66
2023/07/04 14:21:13;;;;;;;10.05;2.20;;;;;;;;;;5109390;27;20048;-66
2023/07/04 14:23:39;;;;;;;9.23;2.03;;;;;;;;;;5110321;27;20040;-66
2023/07/04 14:26:11;;;;;;;7.53;2.13;;;;;;;;;;5124424;27;20039;-66
2023/07/04 14:28:37;;;;;;;8.57;1.67;;;;;;;;;;5106997;27;20048;-66
2023/07/04 14:31:08;;;;;;;8.60;2.33;;;;;;;;;;5141374;27;20050;-66
2023/07/04 14:33:34;;;;;;;7.68;1.70;;;;;;;;;;5113654;28;20053;-66
2023/07/04 14:36:03;;;;;;;9.90;1.95;;;;;;;;;;5113772;28;20521;-66
2023/07/04 14:38:29;;;;;;;10.35;2.13;;;;;;;;;;5113665;28;20106;-67
2023/07/04 14:40:55;;;;;;;11.43;2.38;;;;;;;;;;5114271;27;20047;-67
2023/07/04 14:43:21;;;;;;;13.15;2.25;;;;;;;;;;5112233;28;20059;-66
2023/07/04 14:46:00;;;;;;;13.35;2.50;;;;;;;;;;5113547;28;20051;-68
2023/07/04 14:48:27;;;;;;;8.25;2.08;;;;;;;;;;5113865;28;20050;-67